Tiempo atmosférico en la estación meteorológica de Fregenal De La Sierra, Badajoz (586 m.)



Fecha
DESCASC
Temp. máxima en grados centígrados (hora)
DESCASC
Temp. mínima en grados centígrados (hora)
DESCASC
Temp. media en grados centígrados
DESCASC
Racha de viento máxima en m/sg (hora)
DESCASC
Velocidad máxima media en intervalos de 10 minutos(hora)
DESCASC
Precipitaciones diarias en mm
DESCASC
Precipitaciones de 00:00 a 06:00 en mm
DESCASC
Precipitaciones de 06:00 a 12:00 en mm
DESCASC
Precipitaciones de 12:00 a 18:00 en mm
DESCASC
Precipitaciones de 18:00 a 24:00 en mm
DESCASC
28-02-2021 15.2 (14:10) 4.5 (07:50) 9.8 8.33 (11:00) 4.72 (11:00) 0 0 0 0 0
27-02-2021 16.1 (15:50) 3.4 (08:20) 9.8 4.72 (17:00) 1.94 (11:10) 0 0 0 0 0
26-02-2021 15.7 (15:40) 8.1 (23:59) 11.9 8.61 (13:40) 5 (13:10) 0.6 0.4 0.2 0 0
25-02-2021 14.1 (13:20) 4.8 (00:00) 9.5 7.22 (11:40) 4.17 (11:40) 0 0 0 0 0
24-02-2021 16.3 (15:50) 4.3 (00:00) 10.3 10.28 (03:40) 6.11 (03:50) 0 0 0 0 0
23-02-2021 15.4 (16:20) 1.2 (00:00) 8.3 7.5 (14:50) 4.17 (14:20) 0 0 0 0 0
22-02-2021 12.6 (17:50) 0.3 (00:00) 6.5 7.78 (00:10) 3.61 (00:10) 0 0 0 0 0
21-02-2021 12.7 (02:40) 5.4 (00:00) 9 19.17 (04:10) 9.17 (04:10) 11.4 1 10.4 0 0
20-02-2021 16.2 (15:40) 8.9 (00:00) 12.6 13.61 (16:30) 6.94 (07:10) 0 0 0 0 0
19-02-2021 17 (14:10) 5 (00:00) 11 8.33 (22:30) 5 (12:00) 0.2 0 0.2 0 0
18-02-2021 18.4 (14:50) 3.9 (00:00) 11.1 6.39 (13:30) 2.78 (12:20) 0 0 0 0 0
17-02-2021 21.1 (16:10) 3 (00:00) 12.1 5.56 (14:20) 2.5 (14:30) 0 0 0 0 0
16-02-2021 19.4 (15:30) 6.8 (00:00) 13.1 8.06 (00:10) 4.44 (00:10) 0 0 0 0 0
15-02-2021 17.5 (14:50) 3.7 (00:00) 10.6 9.17 (16:20) 5.56 (16:20) 0 0 0 0 0
14-02-2021 19.9 (15:30) 2.5 (00:00) 11.2 4.72 (17:30) 2.5 (12:20) 0 0 0 0 0
13-02-2021 17.5 (16:20) 2.7 (00:00) 10.1 5.28 (13:30) 2.78 (13:30) 0.2 0.2 0 0 0
12-02-2021 14.6 (16:20) 5 (00:00) 9.8 11.11 (05:40) 5.28 (05:20) 2.8 2.2 0.6 0 0
11-02-2021 14.5 (15:00) 10.2 (00:00) 12.3 5.28 (15:10) 2.78 (14:30) 0.6 0.4 0.2 0 0
10-02-2021 13.5 (16:20) 9.1 (00:00) 11.3 11.11 (02:20) 4.44 (01:30) 19.8 6.4 7 1.8 4.6
09-02-2021 10.6 (15:40) 8 (00:00) 9.3 13.89 (21:50) 5.28 (16:30) 20 1 2 16.8 0.2
08-02-2021 11.7 (15:10) 7.5 (00:00) 9.6 13.89 (04:40) 6.67 (04:40) 17.4 16.2 1.2 0 0
07-02-2021 8.2 (16:20) 4.1 (00:00) 6.1 9.72 (23:50) 4.17 (23:30) 1 0 0 0.2 0.8
06-02-2021 8.8 (15:30) 6.8 (00:00) 7.8 7.5 (08:30) 3.33 (14:00) 10.4 0.8 1.8 3.6 4.2
05-02-2021 9.9 (14:20) 8 (00:00) 8.9 8.89 (16:40) 4.72 (17:10) 20.2 2.2 8.6 5 4.4
04-02-2021 10.6 (10:40) 8.2 (00:00) 9.4 9.17 (11:00) 5.56 (11:10) 15 2.4 0.4 11.4 0.8
03-02-2021 12.3 (15:10) 9.2 (00:00) 10.8 8.06 (15:40) 4.44 (13:00) 1.2 0 0 0 1.2

Gráficas

Temp. máximas Temp. mínimas Temp. medias Precipitaciones Rachas de viento máximas Velocidades máximas media en intervalos de 10 minutos

Datos horarios

Fecha y hora oficial Temperatura (ºC) Velocidad del viento (km/h) Dirección del viento Racha (km/h) Dirección de racha Precipitación (mm) Presión (hPa) Tendencia (hPa) Humedad (%)
2021-03-04 23:00:00 9 6 Sur 12 Sur 0 -- -- 90
2021-03-04 22:00:00 8.7 3 Sudeste 8 Sudeste 0 -- -- 90
2021-03-04 21:00:00 9.5 0 Calma 7 Sudeste 0 -- -- 87
2021-03-04 20:00:00 11.5 4 Sudeste 12 Sudeste 0 -- -- 79
2021-03-04 19:00:00 12.3 6 Sudeste 20 Sur 0 -- -- 74
2021-03-04 18:00:00 13.3 9 Sur 19 Sudeste 0 -- -- 70
2021-03-04 17:00:00 13.8 12 Sur 25 Sur 0 -- -- 68
2021-03-04 16:00:00 14.1 13 Sur 23 Sudeste 0 -- -- 67
2021-03-04 15:00:00 12.7 11 Sur 23 Sudeste 0 -- -- 71
2021-03-04 14:00:00 13.5 10 Sur 21 Sur 0 -- -- 69
2021-03-04 13:00:00 12.9 13 Sur 26 Sur 0 -- -- 72
2021-03-04 12:00:00 11.9 18 Sur 32 Sur 0 -- -- 75
2021-03-04 11:00:00 11.5 18 Sudeste 35 Sudeste 0 -- -- 77
2021-03-04 10:00:00 10.1 10 Sudeste 19 Sudeste 0 -- -- 89
2021-03-04 09:00:00 8.1 5 Sudeste 16 Sudeste 0 -- -- 95
2021-03-04 08:00:00 7.4 6 Sudeste 12 Sudeste 0 -- -- 99
2021-03-04 07:00:00 7.5 3 Sur 11 Sur 0 -- -- 98
2021-03-04 06:00:00 7.3 4 Sur 9 Sur 0 -- -- 99
2021-03-04 05:00:00 7.3 3 Sudoeste 7 Sur 0 -- -- 98
2021-03-04 04:00:00 7.3 4 Sur 10 Sudoeste 0 -- -- 99
2021-03-04 03:00:00 6.3 3 Sudoeste 6 Sudoeste 0 -- -- 98
2021-03-04 02:00:00 6.5 0 Calma 4 Sudoeste 0 -- -- 98
2021-03-04 01:00:00 6.9 0 Calma 3 Noroeste 0 -- -- 97
2021-03-04 00:00:00 7.1 0 Calma 4 Sur 0 -- -- 96
2021-03-03 23:00:00 7.6 2 Norte 5 Norte 0 -- -- 95
2021-03-03 22:00:00 8.7 2 Norte 4 Noroeste 0 -- -- 91
2021-03-03 21:00:00 11 0 Calma 5 Norte 0 -- -- 85
2021-03-03 20:00:00 12.6 2 Nordeste 12 Oeste 0 -- -- 79
2021-03-03 19:00:00 14.2 7 Oeste 14 Oeste 0 -- -- 77
2021-03-03 18:00:00 15.7 0 Calma 25 Sudeste 0 -- -- 76
2021-03-03 17:00:00 17.8 10 Este 19 Este 0 -- -- 56
2021-03-03 16:00:00 18 4 Sudeste 13 Este 0 -- -- 54
2021-03-03 15:00:00 18.1 5 Sudeste 13 Sur 0 -- -- 55
2021-03-03 14:00:00 18.6 4 Sur 15 Sudoeste 0 -- -- 54
2021-03-03 13:00:00 17.7 5 Sur 18 Sur 0 -- -- 59
2021-03-03 12:00:00 16.8 8 Sur 14 Sur 0 -- -- 62
2021-03-03 11:00:00 15.1 6 Sur 12 Sur 0 -- -- 72
2021-03-03 10:00:00 11.5 3 Sudeste 4 Sudeste 0 -- -- 94
2021-03-03 09:00:00 6.4 0 Calma 4 Norte 0 -- -- 100
2021-03-03 08:00:00 5.1 0 Calma 4 Noroeste 0 -- -- 99
2021-03-03 07:00:00 5.5 0 Calma 5 Sur 0 -- -- 98
2021-03-03 06:00:00 5.4 0 Calma 5 Oeste 0 -- -- 98
2021-03-03 05:00:00 5.6 0 Calma 2 Noroeste 0 -- -- 98
2021-03-03 04:00:00 6 0 Calma 6 Noroeste 0 -- -- 97
2021-03-03 03:00:00 6.4 3 Noroeste 8 Noroeste 0 -- -- 96
2021-03-03 02:00:00 7.4 4 Norte 7 Norte 0 -- -- 96
2021-03-03 01:00:00 6.5 3 Norte 5 Norte 0 -- -- 97
2021-03-03 00:00:00 7.3 0 Calma 6 Noroeste 0 -- -- 95
2021-03-02 23:00:00 8.9 4 Noroeste 7 Noroeste 0 -- -- 93
2021-03-02 22:00:00 9.8 6 Norte 10 Norte 0 -- -- 91
2021-03-02 21:00:00 10.2 8 Norte 10 Noroeste 0 -- -- 89
2021-03-02 20:00:00 10.9 7 Norte 9 Norte 0 -- -- 88
2021-03-02 19:00:00 11.8 6 Norte 10 Noroeste 0 -- -- 86
2021-03-02 18:00:00 12.7 7 Norte 11 Norte 0 -- -- 85
2021-03-02 17:00:00 13.5 8 Norte 21 Nordeste 0 -- -- 82
2021-03-02 16:00:00 16.7 4 Noroeste 12 Norte 0 -- -- 62
2021-03-02 15:00:00 15.3 5 Norte 11 Nordeste 0 -- -- 63
2021-03-02 14:00:00 14.9 4 Norte 19 Este 0 -- -- 72
2021-03-02 13:00:00 15.2 5 Norte 12 Norte 0 -- -- 76
2021-03-02 12:00:00 14.5 4 Norte 10 Norte 0 -- -- 73
2021-03-02 11:00:00 13.1 4 Este 7 Sudeste 0 -- -- 78
2021-03-02 10:00:00 9.6 2 Norte 5 Norte 0 -- -- 99
2021-03-02 09:00:00 7.9 3 Norte 5 Noroeste 0 -- -- 99
2021-03-02 08:00:00 6.9 2 Noroeste 4 Norte 0 -- -- 98
2021-03-02 07:00:00 7 0 Calma 4 Noroeste 0 -- -- 98
2021-03-02 06:00:00 6.5 0 Calma 4 Noroeste 0 -- -- 97
2021-03-02 05:00:00 7 0 Calma 3 Sur 0 -- -- 95
2021-03-02 04:00:00 8.1 2 Norte 4 Sur 0 -- -- 95
2021-03-02 03:00:00 9.1 0 Calma 11 Oeste 0 -- -- 92
2021-03-02 02:00:00 6.9 0 Calma 4 Noroeste 0 -- -- 98
2021-03-02 01:00:00 6.3 3 Noroeste 4 Noroeste 0 -- -- 96
2021-03-02 00:00:00 7.3 2 Noroeste 4 Noroeste 0 -- -- 95
2021-03-01 23:00:00 7.7 0 Calma 3 Noroeste 0 -- -- 95
2021-03-01 22:00:00 8.8 2 Noroeste 5 Sudeste 0 -- -- 90
2021-03-01 21:00:00 10.5 0 Calma 7 Noroeste 0 -- -- 86
2021-03-01 20:00:00 11.1 3 Nordeste 7 Noroeste 0 -- -- 83
2021-03-01 19:00:00 12.4 4 Norte 8 Norte 0 -- -- 83
2021-03-01 18:00:00 13.4 5 Nordeste 13 Este 0 -- -- 72
2021-03-01 17:00:00 14.4 4 Sudeste 15 Sudeste 0 -- -- 69
2021-03-01 16:00:00 13.8 9 Sudeste 16 Sudeste 0 -- -- 73
2021-03-01 15:00:00 13.5 9 Este 16 Este 0 -- -- 75
2021-03-01 14:00:00 14.3 6 Este 16 Este 0 -- -- 71
2021-03-01 13:00:00 13 7 Nordeste 11 Nordeste 0 -- -- 73
2021-03-01 12:00:00 11.5 5 Sudeste 9 Sudeste 0 -- -- 82
2021-03-01 11:00:00 9.7 0 Calma 6 Nordeste 0 -- -- 89
2021-03-01 10:00:00 8 3 Nordeste 6 Norte 0 -- -- 99
2021-03-01 09:00:00 5.7 0 Calma 4 Norte 0 -- -- 99
2021-03-01 08:00:00 4.9 0 Calma 3 Sudoeste 0 -- -- 97
2021-03-01 07:00:00 5.8 0 Calma 4 Sudeste 0 -- -- 95
2021-03-01 06:00:00 7.2 0 Calma 3 Sudoeste 0 -- -- 95
2021-03-01 05:00:00 7.4 0 Calma 6 Sur 0 -- -- 97
2021-03-01 04:00:00 6.8 2 Noroeste 4 Sudoeste 0 -- -- 98
2021-03-01 03:00:00 5.5 0 Calma 3 Oeste 0 -- -- 97
2021-03-01 02:00:00 6.5 0 Calma 4 Sudoeste 0 -- -- 98
2021-03-01 01:00:00 5 2 Sudoeste 5 Sudoeste 0 -- -- 97
2021-03-01 00:00:00 5.2 0 Calma 4 Norte 0 -- -- 95
2021-02-28 23:00:00 6.3 0 Calma 4 Sudeste 0 -- -- 93
2021-02-28 22:00:00 7.4 2 Noroeste 13 Sur 0 -- -- 89
2021-02-28 21:00:00 8 0 Calma 4 Sur 0 -- -- 90
2021-02-28 20:00:00 10.4 0 Calma 10 Sudeste 0 -- -- 81
2021-02-28 19:00:00 12.4 5 Sudeste 14 Sudeste 0 -- -- 72
2021-02-28 18:00:00 13.4 8 Sudeste 14 Sur 0 -- -- 67
2021-02-28 17:00:00 14 5 Sudeste 12 Sur 0 -- -- 67
2021-02-28 16:00:00 14.3 5 Sur 13 Sudeste 0 -- -- 65
2021-02-28 15:00:00 14.5 8 Sur 18 Sur 0 -- -- 64
2021-02-28 14:00:00 14.7 9 Sudeste 22 Sur 0 -- -- 65
2021-02-28 13:00:00 13.9 12 Sudeste 22 Sudeste 0 -- -- 70
2021-02-28 12:00:00 13.1 12 Sur 28 Sur 0 -- -- 72
2021-02-28 11:00:00 12.2 17 Sur 30 Sur 0 -- -- 76
2021-02-28 10:00:00 10 6 Sudeste 9 Sudeste 0 -- -- 88
2021-02-28 09:00:00 5.7 0 Calma 6 Sudeste 0 -- -- 99
2021-02-28 08:00:00 4.6 0 Calma 6 Sur 0 -- -- 99
2021-02-28 07:00:00 5.2 3 Sur 5 Sur 0 -- -- 98
2021-02-28 06:00:00 6 2 Sudoeste 8 Oeste 0 -- -- 98
2021-02-28 05:00:00 7.2 5 Sudoeste 8 Sudoeste 0 -- -- 98
2021-02-28 04:00:00 7.4 3 Sudoeste 6 Sudoeste 0 -- -- 99
2021-02-28 03:00:00 6.6 0 Calma 4 Sur 0 -- -- 97
2021-02-28 02:00:00 6.7 0 Calma 4 Norte 0 -- -- 97
2021-02-28 01:00:00 7.5 2 Norte 4 Noroeste 0 -- -- 95
2021-02-28 00:00:00 9.1 0 Calma 5 Sudeste 0 -- -- 94
2021-02-27 23:00:00 10 3 Sur 5 Sudeste 0 -- -- 94
2021-02-27 22:00:00 10.9 2 Sudeste 5 Sudoeste 0 -- -- 93
2021-02-27 21:00:00 11.8 2 Norte 14 Sudeste 0 -- -- 90
2021-02-27 20:00:00 12.6 2 Este 9 Nordeste 0 -- -- 82
2021-02-27 19:00:00 14.2 4 Nordeste 8 Nordeste 0 -- -- 73
2021-02-27 18:00:00 15.2 4 Este 10 Este 0 -- -- 67
2021-02-27 17:00:00 15.7 7 Nordeste 17 Nordeste 0 -- -- 60
2021-02-27 16:00:00 16.1 7 Nordeste 15 Este 0 -- -- 62
2021-02-27 15:00:00 15.5 4 Nordeste 15 Sur 0 -- -- 69
2021-02-27 14:00:00 15.2 5 Sudeste 12 Sudeste 0 -- -- 66
2021-02-27 13:00:00 15.3 2 Sudoeste 11 Sur 0 -- -- 65
2021-02-27 12:00:00 15.1 6 Sur 14 Sur 0 -- -- 65
2021-02-27 11:00:00 13.5 6 Sur 10 Sur 0 -- -- 79
2021-02-27 10:00:00 10.3 3 Sudeste 6 Norte 0 -- -- 100
2021-02-27 09:00:00 4.4 0 Calma 4 Sur 0 -- -- 100
2021-02-27 08:00:00 3.5 0 Calma 4 Norte 0 -- -- 99
2021-02-27 07:00:00 4 0 Calma 4 Norte 0 -- -- 99
2021-02-27 06:00:00 4.1 0 Calma 4 Norte 0 -- -- 98
2021-02-27 05:00:00 4.6 0 Calma 3 Norte 0 -- -- 99
2021-02-27 04:00:00 4.4 0 Calma 3 Norte 0 -- -- 98
2021-02-27 03:00:00 5.1 0 Calma 2 Sur 0 -- -- 98
2021-02-27 02:00:00 5.5 3 Noroeste 5 Noroeste 0 -- -- 97
2021-02-27 01:00:00 6.5 4 Noroeste 6 Noroeste 0 -- -- 96
2021-02-27 00:00:00 8.1 0 Calma 2 Norte 0 -- -- 95
2021-02-26 23:00:00 9.6 0 Calma 13 Noroeste 0 -- -- 94
2021-02-26 22:00:00 10.5 8 Noroeste 17 Noroeste 0 -- -- 94
2021-02-26 21:00:00 10.8 7 Noroeste 13 Noroeste 0 -- -- 93
2021-02-26 20:00:00 11.4 2 Norte 5 Norte 0 -- -- 79
2021-02-26 19:00:00 13.4 3 Nordeste 10 Este 0 -- -- 73
2021-02-26 18:00:00 14.5 5 Este 15 Nordeste 0 -- -- 68
2021-02-26 17:00:00 15.2 6 Este 21 Sudeste 0 -- -- 68
2021-02-26 16:00:00 15.7 11 Este 23 Este 0 -- -- 56
2021-02-26 15:00:00 15.4 12 Sudeste 27 Este 0 -- -- 63
2021-02-26 14:00:00 15.1 16 Sudeste 31 Sudeste 0 -- -- 63
2021-02-26 13:00:00 14.5 17 Sudeste 25 Sudeste 0 -- -- 63
2021-02-26 12:00:00 12.9 11 Sudeste 19 Sudeste 0 -- -- 77
2021-02-26 11:00:00 11.3 3 Sudeste 7 Este 0 -- -- 88
2021-02-26 10:00:00 9.9 0 Calma 4 Sur 0 -- -- 96
2021-02-26 09:00:00 9 0 Calma 8 Sur 0.2 -- -- 96
2021-02-26 08:00:00 9.1 4 Sur 8 Sur 0 -- -- 93
2021-02-26 07:00:00 9 2 Sur 6 Sur 0 -- -- 94
2021-02-26 06:00:00 9.8 3 Sudeste 15 Sudeste 0.4 -- -- 88
2021-02-26 05:00:00 10.3 6 Sudeste 21 Este 0 -- -- 80
2021-02-26 04:00:00 9.6 6 Sudeste 15 Este 0 -- -- 84
2021-02-26 03:00:00 9.4 6 Sudeste 15 Sudeste 0 -- -- 83
2021-02-26 02:00:00 9.4 8 Sudeste 16 Sur 0 -- -- 83
2021-02-26 01:00:00 9.3 2 Sur 8 Sur 0 -- -- 89
2021-02-26 00:00:00 10 2 Sudeste 8 Este 0 -- -- 90
2021-02-25 23:00:00 10.3 0 Calma 8 Sudeste 0 -- -- 89
2021-02-25 22:00:00 9.4 0 Calma 5 Sur 0 -- -- 91
2021-02-25 21:00:00 9.6 0 Calma 4 Sur 0 -- -- 90
2021-02-25 20:00:00 11.1 2 Sudeste 10 Sudeste 0 -- -- 83
2021-02-25 19:00:00 12.5 5 Sudeste 14 Sudeste 0 -- -- 77
2021-02-25 18:00:00 13.4 9 Sudeste 17 Sur 0 -- -- 74
2021-02-25 17:00:00 14.1 9 Sur 19 Sur 0 -- -- 70
2021-02-25 16:00:00 13.9 10 Sur 21 Sur 0 -- -- 74
2021-02-25 15:00:00 13.6 12 Sur 23 Sur 0 -- -- 73
2021-02-25 14:00:00 13.6 12 Sur 22 Sur 0 -- -- 73
2021-02-25 13:00:00 13.8 8 Sur 25 Sur 0 -- -- 73
2021-02-25 12:00:00 13.1 13 Sur 26 Sur 0 -- -- 76
2021-02-25 11:00:00 11.4 14 Sur 23 Sur 0 -- -- 81
2021-02-25 10:00:00 9.3 5 Sur 12 Sur 0 -- -- 89
2021-02-25 09:00:00 7.7 5 Sur 8 Sur 0 -- -- 95
2021-02-25 08:00:00 7.1 3 Sur 8 Sur 0 -- -- 94
2021-02-25 07:00:00 7.3 3 Sur 7 Sur 0 -- -- 94
2021-02-25 06:00:00 6.6 4 Sudoeste 10 Sudoeste 0 -- -- 97
2021-02-25 05:00:00 5.5 3 Sur 6 Sur 0 -- -- 98
2021-02-25 04:00:00 4.9 0 Calma 7 Norte 0 -- -- 96
2021-02-25 03:00:00 5.4 0 Calma 4 Sudeste 0 -- -- 95
2021-02-25 02:00:00 6.1 0 Calma 4 Este 0 -- -- 94
2021-02-25 01:00:00 7.4 0 Calma 9 Sur 0 -- -- 91
2021-02-25 00:00:00 7.4 4 Sur 8 Sur 0 -- -- 93
2021-02-24 23:00:00 8 3 Sudeste 7 Sudeste 0 -- -- 90
2021-02-24 22:00:00 9.3 4 Sudeste 12 Sudeste 0 -- -- 86
2021-02-24 21:00:00 10.1 3 Sudoeste 10 Sur 0 -- -- 84
2021-02-24 20:00:00 11 5 Sudeste 10 Sur 0 -- -- 81
2021-02-24 19:00:00 12.8 7 Sur 23 Sudeste 0 -- -- 75
2021-02-24 18:00:00 14.3 14 Sur 25 Sur 0 -- -- 68
2021-02-24 17:00:00 15.2 14 Sur 31 Sur 0 -- -- 66
2021-02-24 16:00:00 15.4 16 Sur 27 Sur 0 -- -- 66
2021-02-24 15:00:00 15.8 14 Sudeste 31 Sudeste 0 -- -- 63
2021-02-24 14:00:00 15.8 17 Sur 30 Sudeste 0 -- -- 64
2021-02-24 13:00:00 14.8 17 Sur 33 Sur 0 -- -- 67
2021-02-24 12:00:00 13.8 18 Sur 31 Sur 0 -- -- 68
2021-02-24 11:00:00 12.3 17 Sudeste 30 Sudeste 0 -- -- 74
2021-02-24 10:00:00 10.8 17 Sur 33 Sur 0 -- -- 78
2021-02-24 09:00:00 8.7 17 Sur 30 Sur 0 -- -- 85
2021-02-24 08:00:00 6.1 4 Sudeste 13 Este 0 -- -- 93
2021-02-24 07:00:00 7.5 11 Sur 29 Sudeste 0 -- -- 88
2021-02-24 06:00:00 7.4 12 Sur 23 Sur 0 -- -- 89
2021-02-24 05:00:00 7.6 15 Sudeste 32 Sudeste 0 -- -- 86
2021-02-24 04:00:00 7.7 19 Sudeste 37 Sur 0 -- -- 84
2021-02-24 03:00:00 6.4 11 Sudeste 19 Sur 0 -- -- 86
2021-02-24 02:00:00 4.4 3 Sur 5 Sudeste 0 -- -- 88
2021-02-24 01:00:00 5.5 3 Sur 10 Sur 0 -- -- 83
2021-02-24 00:00:00 6.4 5 Sudeste 11 Sudeste 0 -- -- 80
2021-02-23 23:00:00 3.2 0 Calma 3 Sudeste 0 -- -- 90
2021-02-23 22:00:00 4 0 Calma 2 Este 0 -- -- 86
2021-02-23 21:00:00 5.7 0 Calma 5 Sudeste 0 -- -- 81
2021-02-23 20:00:00 9.3 3 Sur 12 Sudeste 0 -- -- 68
2021-02-23 19:00:00 11.9 9 Sudeste 22 Sur 0 -- -- 57
2021-02-23 18:00:00 13.9 13 Sudeste 23 Sudeste 0 -- -- 49
2021-02-23 17:00:00 14.8 12 Sudeste 24 Sudeste 0 -- -- 46
2021-02-23 16:00:00 15.2 11 Sur 22 Sudeste 0 -- -- 49
2021-02-23 15:00:00 15.1 14 Sur 27 Sur 0 -- -- 42
2021-02-23 14:00:00 14.8 14 Sudeste 24 Sur 0 -- -- 47
2021-02-23 13:00:00 14.3 12 Sur 21 Sudeste 0 -- -- 56
2021-02-23 12:00:00 13.2 9 Sudeste 20 Sudeste 0 -- -- 66
2021-02-23 11:00:00 12 11 Sudeste 21 Sudeste 0 -- -- 68
2021-02-23 10:00:00 9.6 3 Sur 6 Sur 0 -- -- 82
2021-02-23 09:00:00 4 2 Sudeste 5 Sudeste 0 -- -- 100
2021-02-23 08:00:00 1.5 0 Calma 2 Norte 0 -- -- 98
2021-02-23 07:00:00 2.5 0 Calma 4 Sudeste 0 -- -- 99
2021-02-23 06:00:00 2.4 0 Calma 4 Sudeste 0 -- -- 98
2021-02-23 05:00:00 2 0 Calma 4 Nordeste 0 -- -- 98
2021-02-23 04:00:00 2.4 0 Calma 0 Calma 0 -- -- 98
2021-02-23 03:00:00 2.8 0 Calma 3 Sudoeste 0 -- -- 98
2021-02-23 02:00:00 3.5 0 Calma 2 Sudoeste 0 -- -- 97
2021-02-23 01:00:00 4.2 0 Calma 4 Sudoeste 0 -- -- 98
2021-02-23 00:00:00 4.7 0 Calma 5 Oeste 0 -- -- 97
2021-02-22 23:00:00 5.9 2 Sur 10 Sur 0 -- -- 96
2021-02-22 22:00:00 5.7 0 Calma 8 Sudoeste 0 -- -- 92
2021-02-22 21:00:00 5.5 0 Calma 11 Sur 0 -- -- 93
2021-02-22 20:00:00 6.5 3 Noroeste 4 Noroeste 0 -- -- 86
2021-02-22 19:00:00 10.2 3 Noroeste 14 Noroeste 0 -- -- 70
2021-02-22 18:00:00 12.6 5 Oeste 14 Noroeste 0 -- -- 60
2021-02-22 17:00:00 11.8 7 Noroeste 18 Norte 0 -- -- 62
2021-02-22 16:00:00 11.4 5 Noroeste 22 Oeste 0 -- -- 66
2021-02-22 15:00:00 10.7 6 Noroeste 18 Noroeste 0 -- -- 63
2021-02-22 14:00:00 11.2 10 Noroeste 19 Oeste 0 -- -- 62
2021-02-22 13:00:00 9.9 10 Noroeste 19 Noroeste 0 -- -- 70
2021-02-22 12:00:00 10.6 7 Noroeste 18 Norte 0 -- -- 68
2021-02-22 11:00:00 9.6 7 Noroeste 15 Noroeste 0 -- -- 76
2021-02-22 10:00:00 6.9 2 Sudeste 5 Sudeste 0 -- -- 91
2021-02-22 09:00:00 2.6 0 Calma 3 Norte 0 -- -- 100
2021-02-22 08:00:00 0.4 3 Noroeste 5 Sudoeste 0 -- -- 96
2021-02-22 07:00:00 1.9 0 Calma 3 Oeste 0 -- -- 95
2021-02-22 06:00:00 3.4 2 Oeste 15 Oeste 0 -- -- 94
2021-02-22 05:00:00 4 9 Noroeste 17 Noroeste 0 -- -- 95
2021-02-22 04:00:00 4 8 Noroeste 14 Noroeste 0 -- -- 95
2021-02-22 03:00:00 4.3 9 Noroeste 19 Noroeste 0 -- -- 95
2021-02-22 02:00:00 4.6 10 Noroeste 22 Noroeste 0 -- -- 95
2021-02-22 01:00:00 4.9 10 Noroeste 28 Noroeste 0 -- -- 93
2021-02-22 00:00:00 5.4 13 Noroeste 26 Noroeste 0 -- -- 91
2021-02-21 23:00:00 6 10 Noroeste 26 Noroeste 0 -- -- 88
2021-02-21 22:00:00 6.2 9 Noroeste 20 Noroeste 0 -- -- 88
2021-02-21 21:00:00 6.4 7 Noroeste 22 Oeste 0 -- -- 86
2021-02-21 20:00:00 7 11 Noroeste 22 Oeste 0 -- -- 87
2021-02-21 19:00:00 7.6 6 Noroeste 25 Noroeste 0 -- -- 78
2021-02-21 18:00:00 9.1 13 Noroeste 34 Noroeste 0 -- -- 72
2021-02-21 17:00:00 9.5 15 Noroeste 34 Noroeste 0 -- -- 74
2021-02-21 16:00:00 9.1 14 Noroeste 30 Noroeste 0 -- -- 80
2021-02-21 15:00:00 7.8 14 Noroeste 31 Noroeste 0 -- -- 88
2021-02-21 14:00:00 6.8 16 Noroeste 28 Noroeste 0 -- -- 92
2021-02-21 13:00:00 7.3 13 Norte 24 Noroeste 0 -- -- 87
2021-02-21 12:00:00 6.2 2 Nordeste 20 Norte 0.6 -- -- 95
2021-02-21 11:00:00 5.4 13 Norte 28 Norte 2.6 -- -- 95
2021-02-21 10:00:00 5.7 14 Noroeste 30 Norte 3.2 -- -- 96
2021-02-21 09:00:00 6.2 11 Noroeste 23 Noroeste 1.6 -- -- 97
2021-02-21 08:00:00 6.4 14 Noroeste 28 Noroeste 1.4 -- -- 95
2021-02-21 07:00:00 8.6 9 Sudoeste 26 Sur 1 -- -- 95
2021-02-21 06:00:00 8.9 13 Sur 54 Sur 0.2 -- -- 94
2021-02-21 05:00:00 10.2 23 Sur 69 Sudoeste 0.4 -- -- 85
2021-02-21 04:00:00 11.8 31 Sur 69 Sur 0 -- -- 72
2021-02-21 03:00:00 10.8 26 Sur 63 Sur 0.4 -- -- 76
2021-02-21 02:00:00 12.2 21 Sur 44 Sur 0 -- -- 55
2021-02-21 01:00:00 10.9 19 Sur 36 Sur 0 -- -- 66
2021-02-21 00:00:00 11.3 19 Sur 36 Sur 0 -- -- 66
2021-02-20 23:00:00 11.2 16 Sur 32 Sur 0 -- -- 71
2021-02-20 22:00:00 11.2 13 Sur 30 Sur 0 -- -- 76
2021-02-20 21:00:00 11.5 14 Sur 33 Sur 0 -- -- 80
2021-02-20 20:00:00 12.1 12 Sur 30 Sur 0 -- -- 68
2021-02-20 19:00:00 13.3 18 Sur 43 Sur 0 -- -- 40
2021-02-20 18:00:00 14.5 22 Sur 49 Sur 0 -- -- 39
2021-02-20 17:00:00 15.1 22 Sur 49 Sudoeste 0 -- -- 38
2021-02-20 16:00:00 15.8 21 Sur 48 Sur 0 -- -- 40
2021-02-20 15:00:00 15 21 Sur 46 Sur 0 -- -- 60
2021-02-20 14:00:00 14.9 20 Sur 42 Sur 0 -- -- 55
2021-02-20 13:00:00 13.2 22 Sur 45 Sur 0 -- -- 60
2021-02-20 12:00:00 12.4 20 Sur 42 Sur 0 -- -- 73
2021-02-20 11:00:00 11.2 18 Sur 40 Sudoeste 0 -- -- 79
2021-02-20 10:00:00 10.3 17 Sur 35 Sudoeste 0 -- -- 84
2021-02-20 09:00:00 9.2 18 Sur 36 Sur 0 -- -- 86
2021-02-20 08:00:00 9 20 Sur 48 Sur 0 -- -- 89
2021-02-20 07:00:00 9.2 24 Sur 47 Sur 0 -- -- 87
2021-02-20 06:00:00 9.3 22 Sur 42 Sur 0 -- -- 87
2021-02-20 05:00:00 9.3 21 Sur 42 Sudoeste 0 -- -- 88
2021-02-20 04:00:00 8.9 10 Sur 26 Sur 0 -- -- 89
2021-02-20 03:00:00 9.4 14 Sur 28 Sur 0 -- -- 88
2021-02-20 02:00:00 9.3 16 Sur 33 Sudoeste 0 -- -- 90
2021-02-20 01:00:00 9.1 9 Sur 22 Sudoeste 0 -- -- 92
2021-02-20 00:00:00 9.6 12 Sur 22 Sur 0 -- -- 93
2021-02-19 23:00:00 9.7 12 Sur 30 Sudoeste 0 -- -- 88
2021-02-19 22:00:00 9 8 Sur 18 Sur 0 -- -- 91
2021-02-19 21:00:00 8.8 8 Sudoeste 18 Sur 0 -- -- 92
2021-02-19 20:00:00 9.3 6 Sur 15 Sudoeste 0 -- -- 87
2021-02-19 19:00:00 10.9 8 Sur 19 Sur 0 -- -- 82
2021-02-19 18:00:00 12.8 8 Sur 18 Sudoeste 0 -- -- 74
2021-02-19 17:00:00 13.7 9 Sudoeste 24 Sudoeste 0 -- -- 68
2021-02-19 16:00:00 15 10 Sudoeste 24 Sudoeste 0 -- -- 65
2021-02-19 15:00:00 16.2 11 Sudoeste 26 Sudoeste 0 -- -- 59
2021-02-19 14:00:00 16.9 12 Sur 28 Sudoeste 0 -- -- 56
2021-02-19 13:00:00 15.6 12 Sur 27 Sudoeste 0 -- -- 60
2021-02-19 12:00:00 13.4 18 Sur 25 Sur 0 -- -- 72
2021-02-19 11:00:00 11.8 13 Sur 21 Sur 0 -- -- 78
2021-02-19 10:00:00 10.1 12 Sur 18 Sur 0 -- -- 87
2021-02-19 09:00:00 7.6 8 Sur 15 Sudoeste 0.2 -- -- 99
2021-02-19 08:00:00 6.5 8 Sur 17 Sur 0 -- -- 99
2021-02-19 07:00:00 6.7 9 Sur 15 Sudoeste 0 -- -- 99
2021-02-19 06:00:00 6.8 7 Sur 15 Sudoeste 0 -- -- 99
2021-02-19 05:00:00 7.3 8 Sur 14 Sur 0 -- -- 99
2021-02-19 04:00:00 7.3 8 Sur 14 Sur 0 -- -- 99
2021-02-19 03:00:00 5.6 5 Sur 9 Sudoeste 0 -- -- 99
2021-02-19 02:00:00 5 3 Sur 5 Sudoeste 0 -- -- 98
2021-02-19 01:00:00 5.9 0 Calma 3 Sudoeste 0 -- -- 97
2021-02-19 00:00:00 7.2 0 Calma 4 Sudoeste 0 -- -- 96
2021-02-18 23:00:00 7.6 0 Calma 4 Sur 0 -- -- 96
2021-02-18 22:00:00 8.4 0 Calma 9 Sudoeste 0 -- -- 92
2021-02-18 21:00:00 9.7 3 Sur 9 Sudoeste 0 -- -- 82
2021-02-18 20:00:00 11.8 5 Sudoeste 9 Sudoeste 0 -- -- 70
2021-02-18 19:00:00 14.1 3 Sudoeste 12 Sudoeste 0 -- -- 54
2021-02-18 18:00:00 16.8 5 Oeste 13 Sudoeste 0 -- -- 46
2021-02-18 17:00:00 18 6 Sudoeste 21 Oeste 0 -- -- 42
2021-02-18 16:00:00 18.2 8 Sudoeste 19 Oeste 0 -- -- 40
2021-02-18 15:00:00 18.2 8 Oeste 18 Noroeste 0 -- -- 43
2021-02-18 14:00:00 17.6 8 Oeste 23 Oeste 0 -- -- 41
2021-02-18 13:00:00 17 7 Oeste 20 Noroeste 0 -- -- 43
2021-02-18 12:00:00 16.3 5 Oeste 16 Sudoeste 0 -- -- 46
2021-02-18 11:00:00 12.7 4 Sudeste 6 Sudeste 0 -- -- 74
2021-02-18 10:00:00 8.7 0 Calma 4 Norte 0 -- -- 99
2021-02-18 09:00:00 5.3 0 Calma 6 Sudoeste 0 -- -- 99
2021-02-18 08:00:00 3.9 2 Oeste 4 Sudoeste 0 -- -- 98
2021-02-18 07:00:00 4.8 0 Calma 5 Norte 0 -- -- 97
2021-02-18 06:00:00 4.8 5 Norte 6 Norte 0 -- -- 97
2021-02-18 05:00:00 4.3 0 Calma 6 Norte 0 -- -- 97
2021-02-18 04:00:00 5.3 0 Calma 5 Noroeste 0 -- -- 97
2021-02-18 03:00:00 5.8 0 Calma 2 Sudeste 0 -- -- 96
2021-02-18 02:00:00 6.2 0 Calma 2 Sur 0 -- -- 96
2021-02-18 01:00:00 6.3 0 Calma 3 Oeste 0 -- -- 94
2021-02-18 00:00:00 6.5 0 Calma 5 Oeste 0 -- -- 89
2021-02-17 23:00:00 7.2 2 Oeste 4 Oeste 0 -- -- 82
2021-02-17 22:00:00 10 0 Calma 11 Oeste 0 -- -- 72
2021-02-17 21:00:00 11.5 6 Noroeste 15 Noroeste 0 -- -- 71
2021-02-17 20:00:00 11.6 6 Noroeste 11 Noroeste 0 -- -- 75
2021-02-17 19:00:00 15 3 Noroeste 13 Oeste 0 -- -- 65
2021-02-17 18:00:00 19.1 7 Oeste 17 Sudoeste 0 -- -- 46
2021-02-17 17:00:00 20.4 9 Oeste 20 Sudoeste 0 -- -- 37
2021-02-17 16:00:00 21 6 Sudoeste 17 Sudoeste 0 -- -- 37
2021-02-17 15:00:00 20.5 7 Sudoeste 20 Sudoeste 0 -- -- 40
2021-02-17 14:00:00 20.4 7 Sudoeste 19 Sur 0 -- -- 37
2021-02-17 13:00:00 19.8 6 Sur 19 Oeste 0 -- -- 41
2021-02-17 12:00:00 17.9 6 Sur 13 Sur 0 -- -- 47
2021-02-17 11:00:00 15 7 Sur 12 Sur 0 -- -- 71
2021-02-17 10:00:00 9.7 2 Sudeste 6 Sudeste 0 -- -- 100
2021-02-17 09:00:00 4 0 Calma 5 Noroeste 0 -- -- 100
2021-02-17 08:00:00 3.3 0 Calma 4 Noroeste 0 -- -- 99
2021-02-17 07:00:00 3.4 3 Noroeste 5 Noroeste 0 -- -- 99
2021-02-17 06:00:00 3.5 3 Noroeste 4 Noroeste 0 -- -- 99
2021-02-17 05:00:00 4 0 Calma 4 Noroeste 0 -- -- 99
2021-02-17 04:00:00 4.4 0 Calma 5 Noroeste 0 -- -- 99
2021-02-17 03:00:00 4.4 0 Calma 6 Noroeste 0 -- -- 98
2021-02-17 02:00:00 5 0 Calma 4 Noroeste 0 -- -- 98
2021-02-17 01:00:00 5.8 0 Calma 5 Norte 0 -- -- 97
2021-02-17 00:00:00 6.8 0 Calma 7 Noroeste 0 -- -- 97
2021-02-16 23:00:00 6.9 4 Noroeste 11 Noroeste 0 -- -- 96
2021-02-16 22:00:00 7.5 4 Noroeste 7 Noroeste 0 -- -- 95
2021-02-16 21:00:00 8.4 4 Norte 8 Noroeste 0 -- -- 93
2021-02-16 20:00:00 10.9 3 Norte 12 Noroeste 0 -- -- 84
2021-02-16 19:00:00 14.2 6 Noroeste 11 Noroeste 0 -- -- 74
2021-02-16 18:00:00 17.8 4 Sudoeste 13 Sudoeste 0 -- -- 57
2021-02-16 17:00:00 18.9 5 Oeste 13 Oeste 0 -- -- 51
2021-02-16 16:00:00 19.3 6 Sudoeste 15 Sudoeste 0 -- -- 52
2021-02-16 15:00:00 19.1 7 Sudoeste 17 Sur 0 -- -- 49
2021-02-16 14:00:00 18.2 6 Sur 16 Sudoeste 0 -- -- 53
2021-02-16 13:00:00 17.8 6 Sudoeste 18 Sudoeste 0 -- -- 53
2021-02-16 12:00:00 17.2 9 Sur 19 Sudoeste 0 -- -- 51
2021-02-16 11:00:00 15.9 11 Sur 24 Sudoeste 0 -- -- 54
2021-02-16 10:00:00 12.7 5 Sur 15 Sur 0 -- -- 61
2021-02-16 09:00:00 8.8 6 Sur 14 Sur 0 -- -- 71
2021-02-16 08:00:00 8.4 6 Sudoeste 22 Sudoeste 0 -- -- 68
2021-02-16 07:00:00 8.8 12 Sur 22 Sur 0 -- -- 66
2021-02-16 06:00:00 9.2 13 Sur 24 Sur 0 -- -- 65
2021-02-16 05:00:00 9.5 12 Sur 21 Sur 0 -- -- 69
2021-02-16 04:00:00 9.5 12 Sur 20 Sur 0 -- -- 75
2021-02-16 03:00:00 9.4 9 Sur 19 Sur 0 -- -- 75
2021-02-16 02:00:00 10 11 Sur 23 Sur 0 -- -- 73
2021-02-16 01:00:00 10.3 15 Sur 29 Sur 0 -- -- 70
2021-02-16 00:00:00 11.1 15 Sur 31 Sudoeste 0 -- -- 66
2021-02-15 23:00:00 9.6 8 Sur 15 Sudoeste 0 -- -- 74
2021-02-15 22:00:00 10.2 9 Sur 17 Sur 0 -- -- 72
2021-02-15 21:00:00 9.8 6 Sur 13 Sur 0 -- -- 76
2021-02-15 20:00:00 11.3 8 Sur 18 Sur 0 -- -- 73
2021-02-15 19:00:00 13.5 10 Sur 22 Sur 0 -- -- 66
2021-02-15 18:00:00 15.3 12 Sudeste 31 Sudeste 0 -- -- 61
2021-02-15 17:00:00 16.6 13 Sudeste 33 Sur 0 -- -- 57
2021-02-15 16:00:00 17.2 17 Sudeste 32 Sur 0 -- -- 53
2021-02-15 15:00:00 17.5 17 Sur 28 Sur 0 -- -- 51
2021-02-15 14:00:00 17.2 15 Sur 23 Sur 0 -- -- 55
2021-02-15 13:00:00 16.6 17 Sur 25 Sur 0 -- -- 52
2021-02-15 12:00:00 15.3 16 Sur 25 Sur 0 -- -- 58
2021-02-15 11:00:00 14 6 Sur 17 Sur 0 -- -- 59
2021-02-15 10:00:00 11.6 10 Sur 20 Sur 0 -- -- 67
2021-02-15 09:00:00 8.7 9 Sur 16 Sur 0 -- -- 75
2021-02-15 08:00:00 6.4 7 Sur 14 Sur 0 -- -- 80
2021-02-15 07:00:00 6.2 7 Sur 13 Sur 0 -- -- 82
2021-02-15 06:00:00 3.7 3 Sur 7 Sur 0 -- -- 91
2021-02-15 05:00:00 4 0 Calma 4 Sudoeste 0 -- -- 91
2021-02-15 04:00:00 5.8 2 Sur 10 Sur 0 -- -- 84
2021-02-15 03:00:00 6.8 5 Sur 12 Sur 0 -- -- 81
2021-02-15 02:00:00 6.5 5 Sur 10 Sudeste 0 -- -- 83
2021-02-15 01:00:00 7.3 4 Sur 10 Sudeste 0 -- -- 80
2021-02-15 00:00:00 9.5 4 Sur 12 Sur 0 -- -- 69
2021-02-14 23:00:00 10 5 Sur 11 Sur 0 -- -- 66
2021-02-14 22:00:00 9.8 6 Sur 12 Sur 0 -- -- 72
2021-02-14 21:00:00 10.5 4 Sur 9 Sur 0 -- -- 69
2021-02-14 20:00:00 12 4 Sur 9 Sur 0 -- -- 64
2021-02-14 19:00:00 14.9 6 Sur 12 Sur 0 -- -- 56
2021-02-14 18:00:00 17.7 6 Sur 17 Sur 0 -- -- 50
2021-02-14 17:00:00 19.4 7 Sur 15 Sudeste 0 -- -- 45
2021-02-14 16:00:00 19.6 6 Sudeste 13 Sudeste 0 -- -- 45
2021-02-14 15:00:00 19.7 6 Sudeste 13 Sudeste 0 -- -- 47
2021-02-14 14:00:00 19.3 6 Sur 14 Sur 0 -- -- 49
2021-02-14 13:00:00 18.7 7 Sur 15 Sur 0 -- -- 50
2021-02-14 12:00:00 17.7 8 Sur 14 Sur 0 -- -- 51
2021-02-14 11:00:00 15.9 5 Sur 9 Sur 0 -- -- 56
2021-02-14 10:00:00 13.4 4 Sur 7 Sur 0 -- -- 61
2021-02-14 09:00:00 5.3 2 Sur 5 Sur 0 -- -- 95
2021-02-14 08:00:00 2.6 0 Calma 3 Noroeste 0 -- -- 95
2021-02-14 07:00:00 2.6 3 Noroeste 6 Norte 0 -- -- 94
2021-02-14 06:00:00 2.8 0 Calma 4 Noroeste 0 -- -- 94
2021-02-14 05:00:00 2.7 0 Calma 5 Nordeste 0 -- -- 93
2021-02-14 04:00:00 3 4 Noroeste 5 Noroeste 0 -- -- 91
2021-02-14 03:00:00 3.2 0 Calma 2 Sudeste 0 -- -- 96
2021-02-14 02:00:00 3.3 0 Calma 4 Norte 0 -- -- 96
2021-02-14 01:00:00 3.8 0 Calma 4 Este 0 -- -- 97
2021-02-14 00:00:00 4.3 2 Norte 5 Norte 0 -- -- 97
2021-02-13 23:00:00 4.7 0 Calma 4 Noroeste 0 -- -- 96
2021-02-13 22:00:00 5.5 3 Noroeste 8 Noroeste 0 -- -- 92
2021-02-13 21:00:00 7.9 6 Noroeste 11 Nordeste 0 -- -- 83
2021-02-13 20:00:00 8 5 Noroeste 8 Noroeste 0 -- -- 81
2021-02-13 19:00:00 11.9 5 Norte 8 Noroeste 0 -- -- 62
2021-02-13 18:00:00 16.3 5 Norte 9 Norte 0 -- -- 41
2021-02-13 17:00:00 17.1 4 Nordeste 14 Noroeste 0 -- -- 28
2021-02-13 16:00:00 17.4 8 Norte 14 Norte 0 -- -- 31
2021-02-13 15:00:00 17.2 6 Norte 12 Noroeste 0 -- -- 39
2021-02-13 14:00:00 16.2 6 Nordeste 19 Norte 0 -- -- 41
2021-02-13 13:00:00 15 4 Norte 8 Norte 0 -- -- 36
2021-02-13 08:00:00 3 0 Calma 5 Norte 0 -- -- 100
2021-02-13 07:00:00 3.4 0 Calma 6 Noroeste 0 -- -- 99
2021-02-13 06:00:00 4.1 4 Norte 10 Noroeste 0.2 -- -- 100
2021-02-13 05:00:00 3.2 4 Noroeste 8 Norte 0 -- -- 99
2021-02-13 04:00:00 3.9 4 Noroeste 8 Noroeste 0 -- -- 100
2021-02-13 03:00:00 3.6 4 Noroeste 6 Noroeste 0 -- -- 99
2021-02-13 02:00:00 3.9 4 Noroeste 5 Noroeste 0 -- -- 99
2021-02-13 01:00:00 4.1 2 Noroeste 4 Noroeste 0 -- -- 99
2021-02-13 00:00:00 5.2 0 Calma 4 Noroeste 0 -- -- 98
2021-02-12 23:00:00 5.3 2 Noroeste 4 Noroeste 0 -- -- 98
2021-02-12 22:00:00 5.8 3 Noroeste 6 Norte 0 -- -- 97
2021-02-12 21:00:00 6.2 4 Norte 8 Noroeste 0 -- -- 94
2021-02-12 20:00:00 8.2 3 Noroeste 5 Noroeste 0 -- -- 89
2021-02-12 19:00:00 11.2 3 Noroeste 16 Noroeste 0 -- -- 79
2021-02-12 18:00:00 13.2 8 Noroeste 18 Norte 0 -- -- 70
2021-02-12 17:00:00 14.2 11 Norte 22 Norte 0 -- -- 63
2021-02-12 16:00:00 14.4 13 Norte 26 Oeste 0 -- -- 62
2021-02-12 15:00:00 14.2 10 Norte 20 Norte 0 -- -- 69
2021-02-12 14:00:00 13.5 8 Norte 21 Norte 0 -- -- 74
2021-02-12 13:00:00 12.2 13 Noroeste 26 Noroeste 0 -- -- 77
2021-02-12 12:00:00 11.2 11 Noroeste 21 Noroeste 0 -- -- 87
2021-02-12 11:00:00 10.1 8 Norte 21 Noroeste 0 -- -- 91
2021-02-12 10:00:00 9.3 7 Noroeste 19 Norte 0 -- -- 95
2021-02-12 09:00:00 8.7 10 Noroeste 24 Noroeste 0 -- -- 98
2021-02-12 08:00:00 9 9 Noroeste 21 Noroeste 0.4 -- -- 98
2021-02-12 07:00:00 8.8 5 Noroeste 31 Noroeste 0.2 -- -- 97
2021-02-12 06:00:00 10.1 19 Noroeste 40 Noroeste 0.8 -- -- 97
2021-02-12 05:00:00 11.1 16 Noroeste 30 Noroeste 0.8 -- -- 98
2021-02-12 04:00:00 11.2 4 Oeste 24 Oeste 0.2 -- -- 99
2021-02-12 03:00:00 11 7 Sudoeste 22 Sudoeste 0.4 -- -- 97
2021-02-12 02:00:00 11.3 6 Sudoeste 24 Oeste 0 -- -- 96
2021-02-12 01:00:00 11.3 6 Sudoeste 21 Sudoeste 0 -- -- 96
2021-02-12 00:00:00 11.6 5 Sudoeste 15 Oeste 0 -- -- 97
2021-02-11 23:00:00 11.5 5 Sur 12 Sur 0 -- -- 97
2021-02-11 22:00:00 11.5 6 Sur 13 Sudoeste 0 -- -- 97
2021-02-11 21:00:00 11.5 5 Sur 14 Sudoeste 0 -- -- 97
2021-02-11 20:00:00 11.7 4 Sur 10 Sur 0 -- -- 96
2021-02-11 19:00:00 12.4 2 Sur 9 Sudoeste 0 -- -- 94
2021-02-11 18:00:00 12.8 3 Sudoeste 12 Sudoeste 0 -- -- 91
2021-02-11 17:00:00 12.8 5 Oeste 18 Oeste 0 -- -- 91
2021-02-11 16:00:00 14.2 5 Sudoeste 19 Sudoeste 0 -- -- 83
2021-02-11 15:00:00 14.5 8 Sudoeste 18 Oeste 0 -- -- 80
2021-02-11 14:00:00 13.4 6 Sudoeste 16 Sudoeste 0 -- -- 92
2021-02-11 13:00:00 12.9 6 Sudoeste 17 Sudoeste 0 -- -- 92
2021-02-11 12:00:00 12.6 6 Sudoeste 18 Sur 0 -- -- 99
2021-02-11 11:00:00 11.9 6 Sudoeste 17 Sur 0 -- -- 100
2021-02-11 10:00:00 11.4 4 Sur 9 Sudoeste 0 -- -- 100
2021-02-11 09:00:00 10.8 4 Sur 9 Sur 0 -- -- 100
2021-02-11 08:00:00 10.7 4 Sur 12 Sudoeste 0 -- -- 100
2021-02-11 07:00:00 10.6 3 Sur 10 Sudoeste 0.2 -- -- 100
2021-02-11 06:00:00 10.5 3 Sudoeste 8 Sudoeste 0 -- -- 99
2021-02-11 05:00:00 10.9 0 Calma 6 Sudoeste 0 -- -- 99
2021-02-11 04:00:00 10.9 3 Oeste 6 Oeste 0.2 -- -- 99
2021-02-11 03:00:00 10.9 0 Calma 13 Oeste 0 -- -- 99
2021-02-11 02:00:00 11.3 4 Sudoeste 18 Oeste 0.2 -- -- 98
2021-02-11 01:00:00 11.5 7 Oeste 17 Noroeste 0 -- -- 99
2021-02-11 00:00:00 11.7 7 Oeste 22 Oeste 0.2 -- -- 99
2021-02-10 23:00:00 12.2 8 Oeste 20 Oeste 0.8 -- -- 99
2021-02-10 22:00:00 12.4 6 Oeste 24 Noroeste 0.6 -- -- 98
2021-02-10 21:00:00 12.6 11 Oeste 27 Oeste 1 -- -- 98
2021-02-10 20:00:00 12.9 6 Oeste 22 Noroeste 1.6 -- -- 99
2021-02-10 19:00:00 13 6 Noroeste 24 Oeste 0.4 -- -- 98
2021-02-10 18:00:00 13.3 10 Noroeste 23 Oeste 0.4 -- -- 98
2021-02-10 17:00:00 13.4 9 Noroeste 28 Oeste 0.2 -- -- 97
2021-02-10 16:00:00 13.3 9 Oeste 24 Oeste 0 -- -- 97
2021-02-10 15:00:00 13 10 Oeste 23 Oeste 0.2 -- -- 98
2021-02-10 14:00:00 12.6 10 Oeste 23 Oeste 0.4 -- -- 98
2021-02-10 13:00:00 12.1 7 Oeste 23 Oeste 0.6 -- -- 97
2021-02-10 12:00:00 11.6 10 Oeste 21 Noroeste 0.6 -- -- 97
2021-02-10 11:00:00 11.1 8 Noroeste 23 Noroeste 0.8 -- -- 99
2021-02-10 10:00:00 10.6 10 Noroeste 24 Noroeste 1.4 -- -- 99
2021-02-10 09:00:00 11.4 14 Oeste 37 Oeste 1.2 -- -- 99
2021-02-10 08:00:00 10.9 11 Oeste 32 Oeste 1.8 -- -- 98
2021-02-10 07:00:00 10.4 12 Oeste 37 Sudoeste 1.2 -- -- 98
2021-02-10 06:00:00 9.9 5 Oeste 26 Oeste 2.6 -- -- 98
2021-02-10 05:00:00 9.9 9 Oeste 33 Sudoeste 2.6 -- -- 97
2021-02-10 04:00:00 9.8 11 Oeste 38 Sudoeste 0.6 -- -- 96
2021-02-10 03:00:00 9.5 11 Sudoeste 40 Oeste 0 -- -- 96
2021-02-10 02:00:00 9.3 14 Oeste 36 Oeste 0.6 -- -- 96
2021-02-10 01:00:00 9.2 13 Oeste 31 Oeste 0 -- -- 94
2021-02-10 00:00:00 9.2 15 Oeste 42 Oeste 0 -- -- 92
2021-02-09 23:00:00 9.5 15 Oeste 49 Oeste 0 -- -- 93
2021-02-09 22:00:00 9.7 12 Oeste 50 Oeste 0.2 -- -- 93
2021-02-09 21:00:00 9.7 10 Sudoeste 37 Oeste 0 -- -- 95
2021-02-09 20:00:00 9.9 13 Oeste 36 Oeste 0 -- -- 95
2021-02-09 19:00:00 9.7 13 Oeste 34 Oeste 0 -- -- 97
2021-02-09 18:00:00 9.7 13 Oeste 43 Oeste 2.6 -- -- 96
2021-02-09 17:00:00 10.1 12 Oeste 46 Oeste 3.4 -- -- 96
2021-02-09 16:00:00 10.3 15 Oeste 44 Sudoeste 3.2 -- -- 95
2021-02-09 15:00:00 10.5 19 Sudoeste 44 Oeste 0 -- -- 94
2021-02-09 14:00:00 10.3 15 Sudoeste 39 Sudoeste 3.2 -- -- 98
2021-02-09 13:00:00 9.7 15 Sudoeste 42 Sudoeste 4.4 -- -- 97
2021-02-09 12:00:00 9.6 15 Sudoeste 48 Oeste 1.6 -- -- 97
2021-02-09 11:00:00 9.4 14 Sudoeste 43 Sudoeste 0.2 -- -- 96
2021-02-09 10:00:00 9.2 14 Sudoeste 36 Sudoeste 0.2 -- -- 96
2021-02-09 09:00:00 9.1 14 Sudoeste 40 Sudoeste 0 -- -- 90
2021-02-09 08:00:00 8.8 18 Sudoeste 44 Oeste 0 -- -- 93
2021-02-09 07:00:00 8.7 10 Sudoeste 35 Oeste 0 -- -- 91
2021-02-09 06:00:00 8.4 13 Sudoeste 35 Sudoeste 0 -- -- 93
2021-02-09 05:00:00 8.3 11 Sudoeste 36 Oeste 0 -- -- 95
2021-02-09 04:00:00 8.1 11 Sudoeste 30 Sudoeste 0.2 -- -- 97
2021-02-09 03:00:00 8.2 9 Sudoeste 28 Oeste 0 -- -- 98
2021-02-09 02:00:00 8.2 9 Sudoeste 26 Sudoeste 0.4 -- -- 99
2021-02-09 01:00:00 8 7 Sudoeste 17 Oeste 0.4 -- -- 98
2021-02-09 00:00:00 8 4 Sudoeste 17 Oeste 0 -- -- 96
2021-02-08 23:00:00 7.6 6 Oeste 23 Oeste 0 -- -- 95
2021-02-08 22:00:00 8.1 7 Oeste 22 Oeste 0 -- -- 92
2021-02-08 21:00:00 8.6 9 Oeste 28 Oeste 0 -- -- 91
2021-02-08 20:00:00 9 11 Oeste 34 Oeste 0 -- -- 92
2021-02-08 19:00:00 9.3 12 Oeste 27 Oeste 0 -- -- 89
2021-02-08 18:00:00 9.6 11 Oeste 32 Noroeste 0 -- -- 87
2021-02-08 17:00:00 10.8 10 Oeste 31 Oeste 0 -- -- 83
2021-02-08 16:00:00 11.1 12 Oeste 43 Oeste 0 -- -- 77
2021-02-08 15:00:00 11.3 14 Oeste 36 Oeste 0 -- -- 80
2021-02-08 14:00:00 10.6 13 Oeste 49 Noroeste 0 -- -- 84
2021-02-08 13:00:00 9.5 17 Noroeste 44 Oeste 0 -- -- 91
2021-02-08 12:00:00 8.6 13 Noroeste 39 Oeste 1.2 -- -- 96
2021-02-08 11:00:00 8.6 16 Oeste 40 Oeste 0 -- -- 92
2021-02-08 10:00:00 8.2 12 Oeste 33 Noroeste 0 -- -- 95
2021-02-08 09:00:00 7.8 12 Noroeste 46 Noroeste 0 -- -- 95
2021-02-08 08:00:00 7.7 16 Noroeste 40 Noroeste 0 -- -- 95
2021-02-08 07:00:00 7.7 11 Noroeste 37 Noroeste 0 -- -- 96
2021-02-08 06:00:00 7.5 15 Noroeste 43 Noroeste 0 -- -- 96
2021-02-08 05:00:00 8.3 19 Noroeste 50 Noroeste 2.6 -- -- 96
2021-02-08 04:00:00 10.2 14 Sudoeste 39 Sudoeste 7.2 -- -- 99
2021-02-08 03:00:00 9.5 12 Sudoeste 26 Sudoeste 4.6 -- -- 100
2021-02-08 02:00:00 8.8 12 Sudoeste 29 Sudoeste 1.4 -- -- 99
2021-02-08 01:00:00 8.4 12 Sudoeste 31 Sudoeste 0.4 -- -- 99
2021-02-08 00:00:00 7.8 13 Sudoeste 35 Sudoeste 0.6 -- -- 99
2021-02-07 23:00:00 7.6 12 Sudoeste 32 Sudoeste 0.2 -- -- 98
2021-02-07 22:00:00 7.6 11 Sudoeste 25 Sudoeste 0 -- -- 97
2021-02-07 21:00:00 7.4 8 Sudoeste 21 Sur 0 -- -- 97
2021-02-07 20:00:00 7.2 7 Sudoeste 26 Sudoeste 0 -- -- 96
2021-02-07 19:00:00 7 6 Sudoeste 21 Oeste 0 -- -- 94
2021-02-07 18:00:00 7.6 9 Oeste 24 Oeste 0 -- -- 88
2021-02-07 17:00:00 8.1 14 Oeste 32 Noroeste 0 -- -- 83
2021-02-07 16:00:00 8 11 Noroeste 27 Noroeste 0 -- -- 81
2021-02-07 15:00:00 7.7 10 Noroeste 31 Noroeste 0.2 -- -- 79
2021-02-07 14:00:00 7.2 14 Noroeste 31 Noroeste 0 -- -- 82
2021-02-07 13:00:00 6.9 13 Noroeste 28 Noroeste 0 -- -- 84
2021-02-07 12:00:00 6.1 13 Noroeste 32 Noroeste 0 -- -- 88
2021-02-07 11:00:00 5.9 12 Noroeste 24 Noroeste 0 -- -- 90
2021-02-07 10:00:00 4.2 10 Noroeste 25 Noroeste 0 -- -- 100
2021-02-07 09:00:00 4.3 8 Noroeste 22 Oeste 0 -- -- 100
2021-02-07 08:00:00 5 8 Noroeste 17 Noroeste 0 -- -- 100
2021-02-07 07:00:00 5.4 5 Noroeste 23 Noroeste 0 -- -- 100
2021-02-07 06:00:00 6.3 7 Noroeste 18 Noroeste 0 -- -- 100
2021-02-07 05:00:00 6.6 10 Noroeste 24 Noroeste 0 -- -- 100
2021-02-07 04:00:00 6.9 10 Noroeste 17 Noroeste 0 -- -- 100
2021-02-07 03:00:00 7 4 Noroeste 17 Noroeste 0 -- -- 100
2021-02-07 02:00:00 7.1 5 Noroeste 15 Norte 0 -- -- 100
2021-02-07 01:00:00 7.1 9 Noroeste 22 Noroeste 0 -- -- 100
2021-02-07 00:00:00 7 10 Noroeste 19 Norte 0.4 -- -- 100
2021-02-06 23:00:00 7 9 Noroeste 18 Noroeste 0.2 -- -- 99
2021-02-06 22:00:00 7 5 Noroeste 17 Noroeste 0.6 -- -- 99
2021-02-06 21:00:00 6.9 8 Noroeste 23 Norte 0.2 -- -- 99
2021-02-06 20:00:00 6.8 10 Noroeste 24 Noroeste 2.4 -- -- 98
2021-02-06 19:00:00 6.9 7 Noroeste 19 Noroeste 0.4 -- -- 98
2021-02-06 18:00:00 6.8 8 Noroeste 25 Noroeste 1.6 -- -- 97
2021-02-06 17:00:00 7.5 7 Noroeste 19 Noroeste 0.2 -- -- 96
2021-02-06 16:00:00 8.4 9 Noroeste 21 Oeste 0 -- -- 94
2021-02-06 15:00:00 8.2 7 Noroeste 22 Oeste 0.6 -- -- 96
2021-02-06 14:00:00 8.5 12 Noroeste 26 Oeste 1 -- -- 97
2021-02-06 13:00:00 8.5 7 Noroeste 21 Noroeste 0.2 -- -- 96
2021-02-06 12:00:00 8.3 8 Noroeste 23 Oeste 0 -- -- 98
2021-02-06 11:00:00 7.7 8 Noroeste 18 Oeste 0.6 -- -- 99
2021-02-06 10:00:00 7.5 5 Oeste 15 Oeste 0.6 -- -- 99
2021-02-06 09:00:00 7.2 8 Oeste 27 Oeste 0 -- -- 99
2021-02-06 08:00:00 7 7 Noroeste 24 Oeste 0.2 -- -- 99
2021-02-06 07:00:00 7.1 8 Oeste 22 Oeste 0.4 -- -- 99
2021-02-06 06:00:00 7 6 Sudoeste 18 Sudoeste 0.4 -- -- 99
2021-02-06 05:00:00 6.8 5 Sudoeste 18 Oeste 0 -- -- 99
2021-02-06 04:00:00 6.9 3 Sudoeste 19 Sudoeste 0.2 -- -- 98
2021-02-06 03:00:00 7.2 4 Sudoeste 17 Oeste 0.2 -- -- 98
2021-02-06 02:00:00 7.4 4 Sudoeste 19 Oeste 0 -- -- 98
2021-02-06 01:00:00 7.8 4 Sudoeste 15 Sudoeste 0 -- -- 99
2021-02-06 00:00:00 8 5 Sudoeste 13 Sudoeste 0.2 -- -- 99
2021-02-05 23:00:00 8.2 5 Sudoeste 15 Oeste 0.4 -- -- 98
2021-02-05 22:00:00 8.1 6 Sudoeste 24 Sudoeste 0.8 -- -- 98
2021-02-05 21:00:00 8.5 11 Sur 26 Sur 0.6 -- -- 99
2021-02-05 20:00:00 8.6 10 Sur 22 Sur 1.4 -- -- 98
2021-02-05 19:00:00 8.9 12 Sur 24 Sur 1 -- -- 98
2021-02-05 18:00:00 9.3 15 Sur 29 Sur 0.2 -- -- 96
2021-02-05 17:00:00 9.8 14 Sudeste 32 Sur 0 -- -- 92
2021-02-05 16:00:00 9.5 11 Sur 28 Sur 0.4 -- -- 94
2021-02-05 15:00:00 9.9 9 Sudeste 19 Sudeste 0.8 -- -- 97
2021-02-05 14:00:00 9.6 6 Sudeste 15 Sudeste 0.6 -- -- 99
2021-02-05 13:00:00 8.7 3 Sur 19 Oeste 3 -- -- 98
2021-02-05 12:00:00 8.5 7 Sudoeste 23 Sudoeste 3.2 -- -- 98
2021-02-05 11:00:00 8.7 10 Sudoeste 24 Sudoeste 2.2 -- -- 100
2021-02-05 10:00:00 8.7 0 Calma 8 Noroeste 1.6 -- -- 100
2021-02-05 09:00:00 8.6 4 Norte 9 Noroeste 1.4 -- -- 100
2021-02-05 08:00:00 8.6 2 Sudeste 14 Nordeste 0 -- -- 100
2021-02-05 07:00:00 8.7 4 Nordeste 12 Noroeste 0.2 -- -- 100
2021-02-05 06:00:00 8.5 3 Noroeste 8 Oeste 1 -- -- 100
2021-02-05 05:00:00 8.5 3 Noroeste 12 Nordeste 0 -- -- 100
2021-02-05 04:00:00 9.1 4 Norte 14 Oeste 0.8 -- -- 100
2021-02-05 03:00:00 8.6 0 Calma 14 Nordeste 0.2 -- -- 100
2021-02-05 02:00:00 8.7 5 Nordeste 12 Nordeste 0.2 -- -- 100
2021-02-05 01:00:00 8.5 0 Calma 8 Nordeste 0 -- -- 100
2021-02-05 00:00:00 8.4 0 Calma 6 Este 0 -- -- 100
2021-02-04 23:00:00 8.6 3 Norte 5 Sur 0 -- -- 99
2021-02-04 22:00:00 9 3 Sudeste 10 Norte 0 -- -- 99
2021-02-04 21:00:00 8.9 6 Nordeste 13 Nordeste 0.2 -- -- 99
2021-02-04 20:00:00 8.8 3 Este 11 Nordeste 0 -- -- 99
2021-02-04 19:00:00 8.8 2 Este 12 Sudeste 0.6 -- -- 99
2021-02-04 18:00:00 9 4 Este 15 Sudeste 0.4 -- -- 99
2021-02-04 17:00:00 9.1 8 Nordeste 18 Nordeste 1.8 -- -- 99
2021-02-04 16:00:00 9 4 Noroeste 18 Noroeste 3.4 -- -- 98
2021-02-04 15:00:00 9.7 7 Norte 19 Noroeste 0.8 -- -- 98
2021-02-04 14:00:00 9.8 0 Calma 9 Norte 2.4 -- -- 98
2021-02-04 13:00:00 9.7 4 Norte 28 Sur 2.6 -- -- 97
2021-02-04 12:00:00 10.6 14 Sur 32 Sur 0.2 -- -- 98
2021-02-04 11:00:00 10.5 18 Sur 33 Sur 0.2 -- -- 98
2021-02-04 10:00:00 10.1 17 Sur 28 Sur 0 -- -- 99
2021-02-04 09:00:00 9.7 13 Sur 26 Sur 0 -- -- 100
2021-02-04 08:00:00 9.6 13 Sur 24 Sur 0 -- -- 99
2021-02-04 07:00:00 9.8 9 Sur 19 Sur 0 -- -- 99
2021-02-04 06:00:00 9.5 4 Sur 14 Sur 0.2 -- -- 100
2021-02-04 05:00:00 9 0 Calma 5 Nordeste 0.6 -- -- 99
2021-02-04 04:00:00 9.2 0 Calma 3 Nordeste 0.2 -- -- 99
2021-02-04 03:00:00 9.3 0 Calma 4 Nordeste 0.8 -- -- 99
2021-02-04 02:00:00 9.4 0 Calma 4 Norte 0.2 -- -- 98
2021-02-04 01:00:00 9.5 2 Norte 14 Noroeste 0.4 -- -- 98
2021-02-04 00:00:00 10.1 7 Noroeste 11 Noroeste 0.8 -- -- 96
2021-02-03 23:00:00 10.8 3 Sudoeste 18 Sudoeste 0.4 -- -- 96
2021-02-03 22:00:00 11 7 Sur 19 Sur 0 -- -- 94
2021-02-03 21:00:00 11.3 10 Sur 19 Sur 0 -- -- 91
2021-02-03 20:00:00 11.4 8 Sur 21 Sur 0 -- -- 90
2021-02-03 19:00:00 11.6 11 Sur 22 Sudoeste 0 -- -- 89
2021-02-03 18:00:00 11.9 11 Sur 25 Sudoeste 0 -- -- 88
2021-02-03 17:00:00 12 14 Sudoeste 24 Sudoeste 0 -- -- 87
2021-02-03 16:00:00 12.1 13 Sur 29 Sudoeste 0 -- -- 87
2021-02-03 15:00:00 12.2 10 Sur 24 Sur 0 -- -- 86
2021-02-03 14:00:00 11.8 14 Sur 24 Sur 0 -- -- 87
2021-02-03 13:00:00 11.3 16 Sur 27 Sur 0 -- -- 88
2021-02-03 12:00:00 11 13 Sur 24 Sur 0 -- -- 89
2021-02-03 11:00:00 10.7 11 Sur 22 Sur 0 -- -- 90
2021-02-03 10:00:00 9.7 11 Sur 22 Sur 0 -- -- 92
2021-02-03 09:00:00 9.4 12 Sur 20 Sudoeste 0 -- -- 91
2021-02-03 08:00:00 9.5 9 Sur 19 Sudoeste 0 -- -- 88
2021-02-03 07:00:00 9.3 7 Sur 14 Sur 0 -- -- 89
2021-02-03 06:00:00 9.3 4 Sur 17 Sur 0 -- -- 89
2021-02-03 05:00:00 9.4 6 Sur 13 Sudoeste 0 -- -- 88
2021-02-03 04:00:00 9.5 4 Sur 13 Sur 0 -- -- 90
2021-02-03 03:00:00 9.6 4 Sur 9 Sur 0 -- -- 92
2021-02-03 02:00:00 9.8 4 Sudoeste 13 Sudoeste 0 -- -- 90
2021-02-03 01:00:00 10 3 Sudoeste 15 Oeste 0 -- -- 88
2021-02-03 00:00:00 10.2 7 Oeste 20 Oeste 0 -- -- 90